Time;durP1;ratioP1;P1;durP2;ratioP2;P2;SDS_P1;SDS_P2;PMS_P1;PMS_P2;Temp;Humidity;BMP_temperature;BMP_pressure;BME280_temperature;BME280_humidity;BME280_pressure;Samples;Min_cycle;Max_cycle;Signal;HPM_P1;HPM_P2
2023/10/18 00:00:28;;;;;;;61.25;44.10;;;;;;;;;;5114624;27;20066;-78
2023/10/18 00:02:54;;;;;;;61.70;50.15;;;;;;;;;;5104939;27;20027;-85
2023/10/18 00:05:21;;;;;;;71.35;52.67;;;;;;;;;;5113815;27;20039;-80
2023/10/18 00:07:46;;;;;;;67.40;50.28;;;;;;;;;;5116431;27;20032;-78
2023/10/18 00:10:12;;;;;;;64.45;48.72;;;;;;;;;;5115087;27;20392;-75
2023/10/18 00:12:39;;;;;;;51.80;40.33;;;;;;;;;;5116123;27;20027;-80
2023/10/18 00:15:05;;;;;;;47.13;36.60;;;;;;;;;;5112381;27;20022;-84
2023/10/18 00:17:31;;;;;;;49.50;40.33;;;;;;;;;;5116414;27;20061;-77
2023/10/18 00:19:57;;;;;;;68.18;46.40;;;;;;;;;;5113391;27;20099;-76
2023/10/18 00:22:22;;;;;;;65.18;45.38;;;;;;;;;;5106126;27;20047;-85
2023/10/18 00:24:47;;;;;;;58.10;42.17;;;;;;;;;;5111509;27;20563;-81
2023/10/18 00:27:13;;;;;;;58.28;42.30;;;;;;;;;;5115787;27;20023;-77
2023/10/18 00:29:38;;;;;;;46.10;37.15;;;;;;;;;;5116177;27;20415;-85
2023/10/18 00:32:04;;;;;;;36.85;29.42;;;;;;;;;;5115044;27;20020;-79
2023/10/18 00:34:30;;;;;;;37.53;27.80;;;;;;;;;;5113753;27;20893;-78
2023/10/18 00:36:55;;;;;;;32.22;24.75;;;;;;;;;;5105939;27;20031;-78
2023/10/18 00:39:27;;;;;;;30.80;23.42;;;;;;;;;;5109401;27;20457;-80
2023/10/18 00:41:53;;;;;;;33.42;25.42;;;;;;;;;;5113967;27;20020;-77
2023/10/18 00:44:21;;;;;;;32.25;24.80;;;;;;;;;;5116250;27;20067;-78
2023/10/18 00:46:46;;;;;;;28.17;22.88;;;;;;;;;;5113543;27;20027;-76
2023/10/18 00:49:15;;;;;;;32.17;22.90;;;;;;;;;;5112778;27;20083;-78
2023/10/18 00:51:43;;;;;;;35.15;25.58;;;;;;;;;;5113507;27;20035;-83
2023/10/18 00:54:12;;;;;;;33.90;25.35;;;;;;;;;;5115772;27;20035;-79
2023/10/18 00:56:43;;;;;;;33.42;24.70;;;;;;;;;;5118648;27;20043;-79
2023/10/18 00:59:14;;;;;;;36.45;26.45;;;;;;;;;;5117599;27;20031;-77
2023/10/18 01:01:43;;;;;;;30.08;23.08;;;;;;;;;;5137010;27;20110;-78
2023/10/18 01:04:12;;;;;;;29.02;22.30;;;;;;;;;;5115435;27;20042;-78
2023/10/18 01:06:41;;;;;;;32.97;24.00;;;;;;;;;;5117616;27;20023;-85
2023/10/18 01:09:06;;;;;;;36.30;24.77;;;;;;;;;;5111502;27;20337;-77
2023/10/18 01:11:31;;;;;;;31.83;25.15;;;;;;;;;;5118707;27;20027;-76
2023/10/18 01:14:00;;;;;;;31.75;24.27;;;;;;;;;;5124331;27;20035;-83
2023/10/18 01:16:29;;;;;;;30.33;23.60;;;;;;;;;;5115029;27;20024;-76
2023/10/18 01:18:55;;;;;;;31.00;24.53;;;;;;;;;;5122064;27;20118;-78
2023/10/18 01:21:21;;;;;;;31.23;25.58;;;;;;;;;;5120461;27;20277;-79
2023/10/18 01:23:54;;;;;;;35.20;28.52;;;;;;;;;;5121420;27;20415;-76
2023/10/18 01:26:23;;;;;;;43.75;32.28;;;;;;;;;;5120602;27;20030;-75
2023/10/18 01:28:49;;;;;;;41.25;32.05;;;;;;;;;;5112581;27;20129;-77
2023/10/18 01:31:14;;;;;;;36.45;30.00;;;;;;;;;;5123874;27;20501;-78
2023/10/18 01:33:50;;;;;;;48.15;33.88;;;;;;;;;;5124415;27;20079;-77
2023/10/18 01:36:17;;;;;;;64.05;42.00;;;;;;;;;;5122578;27;20511;-75
2023/10/18 01:38:44;;;;;;;56.60;39.90;;;;;;;;;;5112219;27;20399;-80
2023/10/18 01:41:33;;;;;;;56.20;38.60;;;;;;;;;;5123288;27;20027;-75
2023/10/18 01:44:06;;;;;;;40.38;30.67;;;;;;;;;;5116128;27;20039;-75
2023/10/18 01:46:45;;;;;;;29.95;24.75;;;;;;;;;;5111164;27;20043;-78
2023/10/18 01:49:13;;;;;;;26.95;20.48;;;;;;;;;;5122851;27;20026;-79
2023/10/18 01:51:42;;;;;;;24.48;20.30;;;;;;;;;;5124805;27;20434;-83
2023/10/18 01:54:12;;;;;;;25.60;18.95;;;;;;;;;;5156078;27;20655;-78
2023/10/18 01:56:38;;;;;;;21.38;18.25;;;;;;;;;;5122289;27;20310;-77
2023/10/18 01:59:14;;;;;;;27.10;19.83;;;;;;;;;;5109485;27;20376;-77
2023/10/18 02:01:40;;;;;;;24.98;19.15;;;;;;;;;;5122179;27;20023;-77
2023/10/18 02:04:11;;;;;;;20.88;16.67;;;;;;;;;;5121514;27;20080;-76
2023/10/18 02:06:37;;;;;;;22.30;17.15;;;;;;;;;;5118304;27;20434;-80
2023/10/18 02:09:09;;;;;;;25.13;18.38;;;;;;;;;;5117877;27;20083;-76
2023/10/18 02:11:35;;;;;;;22.90;17.40;;;;;;;;;;5117663;27;20023;-75
2023/10/18 02:14:01;;;;;;;26.02;20.08;;;;;;;;;;5118799;27;20023;-77
2023/10/18 02:16:28;;;;;;;25.55;20.08;;;;;;;;;;5116516;27;20067;-78
2023/10/18 02:18:54;;;;;;;28.48;20.48;;;;;;;;;;5113247;27;20050;-82
2023/10/18 02:21:21;;;;;;;26.38;18.95;;;;;;;;;;5111351;27;20123;-78
2023/10/18 02:23:50;;;;;;;27.75;24.15;;;;;;;;;;5117433;27;20054;-78
2023/10/18 02:26:30;;;;;;;26.15;22.40;;;;;;;;;;5119812;27;20027;-80
2023/10/18 02:28:56;;;;;;;29.70;24.52;;;;;;;;;;5118237;27;20453;-78
2023/10/18 02:31:22;;;;;;;29.23;24.73;;;;;;;;;;5111459;27;20031;-77
2023/10/18 02:33:53;;;;;;;29.58;24.25;;;;;;;;;;5112002;27;20360;-79
2023/10/18 02:36:21;;;;;;;34.28;25.38;;;;;;;;;;5112724;27;20130;-76
2023/10/18 02:38:49;;;;;;;35.05;25.85;;;;;;;;;;5104015;27;20438;-79
2023/10/18 02:41:15;;;;;;;40.30;30.63;;;;;;;;;;5104464;27;20122;-84
2023/10/18 02:43:48;;;;;;;40.97;30.38;;;;;;;;;;5104712;27;20475;-82
2023/10/18 02:46:16;;;;;;;39.83;29.48;;;;;;;;;;5116274;27;20023;-77
2023/10/18 02:48:43;;;;;;;39.75;29.95;;;;;;;;;;5118017;27;20022;-84
2023/10/18 02:51:11;;;;;;;38.83;29.88;;;;;;;;;;5112999;27;20035;-79
2023/10/18 02:53:41;;;;;;;36.42;29.45;;;;;;;;;;5114468;27;20422;-79
2023/10/18 02:56:06;;;;;;;;;;;;;;;;;;5117362;27;20126;-79
2023/10/18 02:58:34;;;;;;;31.80;25.67;;;;;;;;;;5117234;27;19911;-78
2023/10/18 03:01:05;;;;;;;37.03;27.27;;;;;;;;;;5118515;27;20410;-80
2023/10/18 03:03:31;;;;;;;35.83;28.13;;;;;;;;;;5118635;27;20027;-78
2023/10/18 03:05:59;;;;;;;35.40;29.58;;;;;;;;;;5118463;27;20061;-77
2023/10/18 03:08:24;;;;;;;39.50;31.52;;;;;;;;;;5117435;27;20031;-84
2023/10/18 03:10:51;;;;;;;36.13;28.33;;;;;;;;;;5115160;27;20038;-78
2023/10/18 03:13:17;;;;;;;36.15;28.20;;;;;;;;;;5119449;27;20426;-77
2023/10/18 03:18:44;;;;;;;28.25;23.77;;;;;;;;;;5096410;28;20043;-77
2023/10/18 03:21:13;;;;;;;29.93;23.60;;;;;;;;;;5095443;28;20100;-78
2023/10/18 03:23:44;;;;;;;26.80;21.27;;;;;;;;;;5096548;28;20086;-76
2023/10/18 03:26:13;;;;;;;22.83;18.92;;;;;;;;;;5086516;28;20423;-79
2023/10/18 03:28:40;;;;;;;20.02;17.13;;;;;;;;;;5093141;28;20497;-80
2023/10/18 03:31:21;;;;;;;20.50;17.13;;;;;;;;;;5110111;27;20115;-76
2023/10/18 03:33:59;;;;;;;19.75;17.65;;;;;;;;;;5094483;28;20024;-76
2023/10/18 03:36:26;;;;;;;19.60;16.65;;;;;;;;;;5094961;28;20085;-78
2023/10/18 03:38:54;;;;;;;19.80;16.25;;;;;;;;;;5094818;28;20383;-79
2023/10/18 03:41:25;;;;;;;17.45;15.13;;;;;;;;;;5095039;28;20036;-75
2023/10/18 03:44:06;;;;;;;21.00;16.42;;;;;;;;;;5091203;28;20327;-81
2023/10/18 03:46:47;;;;;;;29.30;26.38;;;;;;;;;;5082434;28;20027;-81
2023/10/18 03:49:37;;;;;;;40.05;31.55;;;;;;;;;;5081699;28;20066;-80
2023/10/18 03:52:45;;;;;;;30.23;26.02;;;;;;;;;;5078539;28;20150;-79
2023/10/18 03:57:37;;;;;;;45.63;33.42;;;;;;;;;;5098957;27;20461;-77
2023/10/18 04:00:28;;;;;;;38.55;31.55;;;;;;;;;;5106034;27;20399;-81
2023/10/18 04:02:52;;;;;;;40.97;31.83;;;;;;;;;;5103124;27;20019;-75
2023/10/18 04:05:35;;;;;;;45.00;34.10;;;;;;;;;;5103414;27;20023;-75
2023/10/18 04:08:02;;;;;;;37.42;31.52;;;;;;;;;;5101325;27;20366;-77
2023/10/18 04:10:31;;;;;;;43.13;36.40;;;;;;;;;;5101042;27;20059;-81
2023/10/18 04:12:56;;;;;;;50.72;41.15;;;;;;;;;;5102383;27;20098;-76
2023/10/18 04:15:22;;;;;;;49.28;39.95;;;;;;;;;;5105272;27;20019;-77
2023/10/18 04:18:02;;;;;;;45.53;37.42;;;;;;;;;;5104577;27;20054;-75
2023/10/18 04:20:31;;;;;;;41.25;33.40;;;;;;;;;;5117194;27;20027;-75
2023/10/18 04:22:57;;;;;;;43.33;34.22;;;;;;;;;;5114895;27;20447;-77
2023/10/18 04:25:31;;;;;;;52.28;43.28;;;;;;;;;;5116460;27;20087;-76
2023/10/18 04:28:00;;;;;;;46.58;36.83;;;;;;;;;;5113792;27;20049;-78
2023/10/18 04:30:25;;;;;;;42.38;34.17;;;;;;;;;;5113802;27;20027;-75
2023/10/18 04:32:59;;;;;;;39.90;32.80;;;;;;;;;;5116829;27;20026;-75
2023/10/18 04:35:29;;;;;;;41.28;36.30;;;;;;;;;;5114961;27;20074;-79
2023/10/18 04:37:58;;;;;;;48.40;39.42;;;;;;;;;;5129438;27;20164;-76
2023/10/18 04:40:25;;;;;;;57.00;46.85;;;;;;;;;;5116594;27;20354;-79
2023/10/18 04:42:51;;;;;;;62.38;49.95;;;;;;;;;;5101914;27;20035;-79
2023/10/18 04:45:18;;;;;;;64.25;55.58;;;;;;;;;;5109529;27;20507;-76
2023/10/18 04:47:43;;;;;;;67.43;57.50;;;;;;;;;;5107876;27;20038;-82
2023/10/18 04:50:11;;;;;;;71.35;55.38;;;;;;;;;;5111938;27;20024;-77
2023/10/18 04:52:40;;;;;;;64.88;53.40;;;;;;;;;;5115486;28;20027;-77
2023/10/18 04:55:12;;;;;;;60.50;48.80;;;;;;;;;;5115563;28;20026;-76
2023/10/18 04:57:38;;;;;;;79.28;63.05;;;;;;;;;;5114527;28;20051;-77
2023/10/18 05:00:35;;;;;;;73.40;60.92;;;;;;;;;;5111695;28;20473;-80
2023/10/18 05:03:02;;;;;;;72.70;59.40;;;;;;;;;;5103723;28;20098;-77
2023/10/18 05:05:27;;;;;;;79.95;66.05;;;;;;;;;;5115203;27;20026;-86
2023/10/18 05:07:54;;;;;;;85.18;63.60;;;;;;;;;;5112347;27;20031;-77
2023/10/18 05:10:21;;;;;;;114.97;75.32;;;;;;;;;;5096816;28;20379;-75
2023/10/18 05:13:18;;;;;;;92.95;72.22;;;;;;;;;;5101374;28;20027;-73
2023/10/18 05:15:43;;;;;;;79.00;65.93;;;;;;;;;;5100517;27;20077;-80
2023/10/18 05:18:18;;;;;;;78.75;67.80;;;;;;;;;;5112097;28;20788;-71
2023/10/18 05:23:19;;;;;;;87.40;68.60;;;;;;;;;;5106646;28;20204;-73
2023/10/18 05:25:45;;;;;;;84.82;66.47;;;;;;;;;;5100146;28;20085;-72
2023/10/18 05:28:24;;;;;;;84.85;67.40;;;;;;;;;;5097981;28;20465;-76
2023/10/18 05:36:11;;;;;;;84.72;64.43;;;;;;;;;;5109364;28;20660;-74
2023/10/18 05:41:28;;;;;;;96.20;71.57;;;;;;;;;;5115686;27;20707;-74
2023/10/18 05:43:58;;;;;;;93.90;74.95;;;;;;;;;;5115352;27;20058;-77
2023/10/18 05:46:27;;;;;;;96.50;74.30;;;;;;;;;;5116851;27;20047;-76
2023/10/18 05:48:55;;;;;;;104.13;82.55;;;;;;;;;;5118629;27;20062;-80
2023/10/18 05:53:49;;;;;;;100.57;80.90;;;;;;;;;;5118681;27;20080;-73
2023/10/18 05:56:14;;;;;;;103.90;82.07;;;;;;;;;;5111419;27;20935;-78
2023/10/18 05:58:40;;;;;;;113.05;91.78;;;;;;;;;;5112734;27;20019;-75
2023/10/18 06:01:05;;;;;;;98.57;75.15;;;;;;;;;;5119863;27;20035;-83
2023/10/18 06:03:39;;;;;;;100.97;76.28;;;;;;;;;;5109447;27;20022;-75
2023/10/18 06:06:07;;;;;;;84.88;69.03;;;;;;;;;;5116458;27;20050;-73
2023/10/18 06:08:33;;;;;;;86.75;70.47;;;;;;;;;;5105493;27;20129;-73
2023/10/18 06:11:08;;;;;;;89.95;72.45;;;;;;;;;;5113456;27;21144;-76
2023/10/18 06:13:35;;;;;;;92.78;74.25;;;;;;;;;;5117401;27;20031;-75
2023/10/18 06:16:17;;;;;;;107.95;89.72;;;;;;;;;;5117713;27;20388;-73
2023/10/18 06:18:45;;;;;;;105.95;87.75;;;;;;;;;;5119082;27;20110;-75
2023/10/18 06:21:12;;;;;;;96.70;80.47;;;;;;;;;;5116495;27;20039;-75
2023/10/18 06:23:38;;;;;;;67.38;53.47;;;;;;;;;;5117489;27;20431;-74
2023/10/18 06:28:49;;;;;;;54.13;42.67;;;;;;;;;;5119798;27;20038;-76
2023/10/18 06:31:14;;;;;;;52.80;43.78;;;;;;;;;;5120793;27;20027;-80
2023/10/18 06:33:40;;;;;;;64.20;50.30;;;;;;;;;;5119911;27;20038;-74
2023/10/18 06:36:12;;;;;;;68.00;52.20;;;;;;;;;;5119625;27;20051;-73
2023/10/18 06:38:37;;;;;;;58.72;47.58;;;;;;;;;;5118013;27;20146;-75
2023/10/18 06:41:10;;;;;;;58.50;46.58;;;;;;;;;;5116582;27;20145;-73
2023/10/18 06:43:36;;;;;;;58.40;49.25;;;;;;;;;;5118692;27;20042;-78
2023/10/18 06:46:04;;;;;;;61.17;49.00;;;;;;;;;;5118009;27;20028;-80
2023/10/18 06:48:30;;;;;;;62.28;51.58;;;;;;;;;;5114608;27;20035;-73
2023/10/18 06:50:57;;;;;;;65.28;52.38;;;;;;;;;;5114555;27;20398;-74
2023/10/18 06:53:25;;;;;;;60.22;51.00;;;;;;;;;;5114860;27;20042;-75
2023/10/18 06:55:58;;;;;;;60.28;48.85;;;;;;;;;;5114306;27;20100;-74
2023/10/18 07:00:53;;;;;;;45.90;34.78;;;;;;;;;;5115492;27;20031;-75
2023/10/18 07:03:28;;;;;;;39.88;32.97;;;;;;;;;;5115511;27;20027;-74
2023/10/18 07:05:56;;;;;;;47.47;36.13;;;;;;;;;;5115270;27;20023;-72
2023/10/18 07:08:34;;;;;;;52.03;40.88;;;;;;;;;;5119300;27;20062;-80
2023/10/18 07:11:02;;;;;;;90.57;80.65;;;;;;;;;;5113414;27;20124;-73
2023/10/18 07:13:42;;;;;;;55.53;46.50;;;;;;;;;;5116257;27;20047;-75
2023/10/18 07:16:18;;;;;;;48.42;39.70;;;;;;;;;;5114992;27;20058;-75
2023/10/18 07:18:44;;;;;;;42.83;30.38;;;;;;;;;;5116304;27;20060;-75
2023/10/18 07:21:10;;;;;;;50.15;39.65;;;;;;;;;;5118602;27;20079;-76
2023/10/18 07:23:36;;;;;;;44.42;34.65;;;;;;;;;;5118201;27;20035;-79
2023/10/18 07:26:07;;;;;;;59.75;48.25;;;;;;;;;;5113731;27;20398;-80
2023/10/18 07:28:35;;;;;;;72.60;65.03;;;;;;;;;;5115080;27;20054;-78
2023/10/18 07:31:11;;;;;;;56.60;45.72;;;;;;;;;;5114202;27;20031;-75
2023/10/18 07:33:42;;;;;;;55.47;43.22;;;;;;;;;;5118118;27;20106;-76
2023/10/18 07:36:11;;;;;;;56.08;44.20;;;;;;;;;;5117995;27;20134;-74
2023/10/18 07:38:38;;;;;;;54.35;45.97;;;;;;;;;;5117113;27;20118;-74
2023/10/18 07:41:07;;;;;;;53.72;44.03;;;;;;;;;;5114663;27;20031;-75
2023/10/18 07:43:32;;;;;;;49.10;41.10;;;;;;;;;;5116391;27;20023;-78
2023/10/18 07:45:58;;;;;;;53.92;43.55;;;;;;;;;;5116585;27;20072;-76
2023/10/18 07:48:24;;;;;;;61.05;48.65;;;;;;;;;;5115688;27;20076;-74
2023/10/18 07:50:50;;;;;;;48.58;38.85;;;;;;;;;;5117714;27;20031;-77
2023/10/18 07:53:15;;;;;;;51.08;41.63;;;;;;;;;;5119120;27;20027;-75
2023/10/18 07:55:47;;;;;;;47.72;39.75;;;;;;;;;;5118523;27;20033;-80
2023/10/18 07:58:22;;;;;;;45.58;37.70;;;;;;;;;;5114546;27;20333;-76
2023/10/18 08:03:29;;;;;;;50.15;40.58;;;;;;;;;;5115165;27;21122;-75
2023/10/18 08:05:56;;;;;;;40.75;31.65;;;;;;;;;;5112708;27;20028;-76
2023/10/18 08:08:24;;;;;;;44.40;34.22;;;;;;;;;;5115661;27;20024;-80
2023/10/18 08:10:53;;;;;;;52.28;38.15;;;;;;;;;;5114956;27;20023;-75
2023/10/18 08:13:18;;;;;;;54.17;40.08;;;;;;;;;;5114233;27;20015;-79
2023/10/18 08:15:50;;;;;;;66.32;45.63;;;;;;;;;;5116317;27;20035;-77
2023/10/18 08:18:16;;;;;;;37.45;28.50;;;;;;;;;;5113398;27;20035;-79
2023/10/18 08:25:52;;;;;;;22.45;18.95;;;;;;;;;;5112794;27;20034;-78
2023/10/18 08:28:20;;;;;;;30.05;22.40;;;;;;;;;;5118420;27;20036;-80
2023/10/18 08:33:10;;;;;;;29.98;25.05;;;;;;;;;;5114963;27;20057;-75
2023/10/18 08:35:36;;;;;;;40.92;29.33;;;;;;;;;;5116780;27;20458;-79
2023/10/18 08:38:01;;;;;;;35.25;26.02;;;;;;;;;;5116852;27;20087;-77
2023/10/18 08:40:28;;;;;;;22.15;17.73;;;;;;;;;;5114766;27;20054;-78
2023/10/18 08:43:05;;;;;;;18.00;14.90;;;;;;;;;;5117592;27;20087;-76
2023/10/18 08:45:36;;;;;;;24.50;19.08;;;;;;;;;;5112343;27;20031;-77
2023/10/18 08:48:09;;;;;;;21.45;16.88;;;;;;;;;;5115955;27;20084;-78
2023/10/18 08:50:35;;;;;;;25.33;19.05;;;;;;;;;;5114631;27;20035;-76
2023/10/18 08:53:01;;;;;;;23.30;18.15;;;;;;;;;;5115101;27;20020;-78
2023/10/18 08:55:43;;;;;;;13.68;11.23;;;;;;;;;;5115413;27;20034;-80
2023/10/18 08:58:10;;;;;;;16.80;13.65;;;;;;;;;;5116277;27;20031;-78
2023/10/18 09:03:07;;;;;;;13.13;11.03;;;;;;;;;;5115398;27;20038;-78
2023/10/18 09:05:35;;;;;;;15.38;12.02;;;;;;;;;;5112713;27;20259;-78
2023/10/18 09:08:03;;;;;;;18.08;11.13;;;;;;;;;;5116640;28;20387;-77
2023/10/18 09:18:15;;;;;;;13.98;10.05;;;;;;;;;;5120994;27;20499;-79
2023/10/18 09:20:41;;;;;;;17.95;14.02;;;;;;;;;;5119146;27;20027;-78
2023/10/18 09:23:14;;;;;;;17.05;11.00;;;;;;;;;;5121030;27;20035;-80
2023/10/18 09:25:49;;;;;;;16.85;11.63;;;;;;;;;;5120537;27;20038;-77
2023/10/18 09:30:48;;;;;;;13.73;9.27;;;;;;;;;;5115114;27;20383;-78
2023/10/18 09:33:14;;;;;;;15.05;10.43;;;;;;;;;;5121046;27;20038;-79
2023/10/18 09:35:39;;;;;;;13.68;9.40;;;;;;;;;;5118204;27;20035;-80
2023/10/18 09:38:07;;;;;;;11.18;9.70;;;;;;;;;;5119834;27;20064;-79
2023/10/18 09:40:35;;;;;;;15.18;12.15;;;;;;;;;;5116974;27;20015;-76
2023/10/18 09:43:00;;;;;;;16.10;10.82;;;;;;;;;;5121557;27;20031;-78
2023/10/18 09:45:28;;;;;;;18.45;13.27;;;;;;;;;;5119312;27;20038;-79
2023/10/18 09:47:56;;;;;;;18.23;12.60;;;;;;;;;;5115400;27;20015;-76
2023/10/18 09:50:24;;;;;;;14.00;11.75;;;;;;;;;;5117162;27;20535;-79
2023/10/18 09:52:56;;;;;;;15.02;12.88;;;;;;;;;;5120180;27;20074;-76
2023/10/18 09:55:24;;;;;;;13.75;12.15;;;;;;;;;;5116176;27;20035;-77
2023/10/18 09:57:59;;;;;;;16.02;11.50;;;;;;;;;;5117553;27;20031;-77
2023/10/18 10:00:30;;;;;;;14.85;12.75;;;;;;;;;;5119507;27;20062;-78
2023/10/18 10:02:56;;;;;;;13.02;9.57;;;;;;;;;;5120251;27;20019;-80
2023/10/18 10:05:26;;;;;;;25.50;22.90;;;;;;;;;;5121979;27;20007;-78
2023/10/18 10:07:56;;;;;;;13.05;10.80;;;;;;;;;;5120220;27;20513;-78
2023/10/18 10:10:24;;;;;;;12.40;11.02;;;;;;;;;;5122441;27;20027;-78
2023/10/18 10:12:57;;;;;;;13.50;10.63;;;;;;;;;;5120064;27;20016;-78
2023/10/18 10:15:24;;;;;;;12.95;9.48;;;;;;;;;;5121032;27;20110;-78
2023/10/18 10:17:57;;;;;;;10.65;8.35;;;;;;;;;;5117375;27;20044;-77
2023/10/18 10:20:23;;;;;;;10.85;8.93;;;;;;;;;;5119385;27;20035;-77
2023/10/18 10:22:49;;;;;;;12.40;8.75;;;;;;;;;;5114318;27;20027;-81
2023/10/18 10:25:31;;;;;;;12.88;11.20;;;;;;;;;;5115368;27;20465;-78
2023/10/18 10:27:59;;;;;;;14.25;9.25;;;;;;;;;;5119666;27;20429;-81
2023/10/18 10:30:34;;;;;;;15.90;9.27;;;;;;;;;;5118117;27;20114;-78
2023/10/18 10:32:59;;;;;;;13.75;9.43;;;;;;;;;;5118625;27;20110;-79
2023/10/18 10:35:28;;;;;;;13.18;11.25;;;;;;;;;;5122286;27;20134;-79
2023/10/18 10:38:21;;;;;;;11.20;8.65;;;;;;;;;;5114487;27;20030;-78
2023/10/18 10:40:49;;;;;;;17.23;11.98;;;;;;;;;;5117345;27;20035;-77
2023/10/18 10:43:18;;;;;;;13.38;11.32;;;;;;;;;;5118049;27;20218;-76
2023/10/18 10:48:18;;;;;;;12.48;10.75;;;;;;;;;;5116567;27;20030;-79
2023/10/18 10:50:45;;;;;;;15.77;13.35;;;;;;;;;;5119811;27;20047;-80
2023/10/18 10:53:10;;;;;;;12.23;10.10;;;;;;;;;;5117108;27;20023;-79
2023/10/18 10:55:36;;;;;;;13.55;10.35;;;;;;;;;;5118730;27;20046;-79
2023/10/18 10:58:15;;;;;;;12.63;9.05;;;;;;;;;;5118498;27;20593;-78
2023/10/18 11:00:59;;;;;;;15.38;10.70;;;;;;;;;;5115552;27;20019;-76
2023/10/18 11:03:28;;;;;;;16.65;10.20;;;;;;;;;;5117230;27;20439;-76
2023/10/18 11:05:54;;;;;;;;;;;;;;;;;;5132709;27;20035;-77
2023/10/18 11:08:19;;;;;;;15.47;13.03;;;;;;;;;;5117735;27;19926;-80
2023/10/18 11:10:45;;;;;;;21.88;19.58;;;;;;;;;;5118466;27;20027;-78
2023/10/18 11:13:13;;;;;;;19.38;16.38;;;;;;;;;;5115832;27;20027;-82
2023/10/18 11:15:42;;;;;;;15.57;13.30;;;;;;;;;;5117485;27;20104;-79
2023/10/18 11:18:20;;;;;;;12.98;11.55;;;;;;;;;;5115839;27;20442;-80
2023/10/18 11:20:48;;;;;;;11.27;9.02;;;;;;;;;;5118295;27;20019;-81
2023/10/18 11:23:14;;;;;;;12.05;9.90;;;;;;;;;;5117485;27;20043;-78
2023/10/18 11:25:41;;;;;;;15.88;9.00;;;;;;;;;;5118923;27;20054;-79
2023/10/18 11:28:20;;;;;;;14.20;8.48;;;;;;;;;;5114301;27;20027;-81
2023/10/18 11:30:45;;;;;;;13.40;9.40;;;;;;;;;;5117376;27;20024;-80
2023/10/18 11:33:15;;;;;;;11.23;8.18;;;;;;;;;;5118406;27;20023;-79
2023/10/18 11:38:10;;;;;;;12.10;8.32;;;;;;;;;;5106497;27;20039;-83
2023/10/18 11:40:40;;;;;;;12.27;8.15;;;;;;;;;;5112859;27;20041;-78
2023/10/18 11:43:09;;;;;;;9.85;7.47;;;;;;;;;;5116772;27;20046;-79
2023/10/18 11:45:38;;;;;;;10.68;7.60;;;;;;;;;;5118495;27;20027;-79
2023/10/18 11:48:05;;;;;;;11.55;7.57;;;;;;;;;;5117745;27;20026;-78
2023/10/18 11:50:58;;;;;;;10.63;7.90;;;;;;;;;;5118993;27;20487;-77
2023/10/18 11:53:24;;;;;;;8.80;7.72;;;;;;;;;;5113407;27;20035;-80
2023/10/18 11:55:56;;;;;;;9.82;7.72;;;;;;;;;;5117387;27;20030;-80
2023/10/18 11:58:26;;;;;;;8.13;7.32;;;;;;;;;;5118103;27;20018;-79
2023/10/18 12:01:00;;;;;;;7.53;6.20;;;;;;;;;;5118543;27;20032;-83
2023/10/18 12:03:33;;;;;;;8.43;7.10;;;;;;;;;;5118573;27;20027;-78
2023/10/18 12:06:00;;;;;;;19.00;11.65;;;;;;;;;;5118944;27;20038;-81
2023/10/18 12:08:30;;;;;;;12.07;6.47;;;;;;;;;;5115582;27;20346;-79
2023/10/18 12:10:56;;;;;;;15.88;10.82;;;;;;;;;;5115940;27;20107;-80
2023/10/18 12:13:21;;;;;;;13.75;10.02;;;;;;;;;;5117772;27;20023;-80
2023/10/18 12:15:50;;;;;;;10.75;6.97;;;;;;;;;;5117789;27;20034;-80
2023/10/18 12:18:15;;;;;;;7.40;5.47;;;;;;;;;;5114086;27;20026;-80
2023/10/18 12:20:44;;;;;;;9.48;6.10;;;;;;;;;;5117080;27;20442;-80
2023/10/18 12:23:18;;;;;;;7.00;6.03;;;;;;;;;;5119758;27;20019;-81
2023/10/18 12:25:44;;;;;;;9.65;7.03;;;;;;;;;;5114982;27;20558;-79
2023/10/18 12:28:13;;;;;;;7.80;6.93;;;;;;;;;;5116588;27;20026;-80
2023/10/18 12:30:43;;;;;;;9.65;7.40;;;;;;;;;;5115170;27;20031;-80
2023/10/18 12:33:33;;;;;;;16.00;12.45;;;;;;;;;;5115890;27;20014;-79
2023/10/18 12:35:56;;;;;;;8.07;6.68;;;;;;;;;;5114576;27;20075;-78
2023/10/18 12:38:37;;;;;;;8.73;7.53;;;;;;;;;;5115596;27;20046;-79
2023/10/18 12:43:44;;;;;;;10.98;7.18;;;;;;;;;;5118302;27;20362;-80
2023/10/18 12:46:15;;;;;;;8.05;5.85;;;;;;;;;;5115505;27;20390;-78
2023/10/18 12:48:40;;;;;;;9.75;7.38;;;;;;;;;;5115280;27;20035;-78
2023/10/18 12:51:12;;;;;;;8.30;5.28;;;;;;;;;;5112086;27;20042;-78
2023/10/18 12:53:58;;;;;;;8.38;6.13;;;;;;;;;;5097726;28;20339;-78
2023/10/18 12:58:54;;;;;;;8.13;6.30;;;;;;;;;;5112692;27;20196;-83
2023/10/18 13:01:33;;;;;;;6.45;5.80;;;;;;;;;;5111793;27;20080;-78
2023/10/18 13:03:59;;;;;;;9.00;8.10;;;;;;;;;;5111131;28;20111;-76
2023/10/18 13:09:22;;;;;;;10.55;7.97;;;;;;;;;;5106957;28;20512;-76
2023/10/18 13:14:32;;;;;;;19.65;16.10;;;;;;;;;;5116192;28;20160;-78
2023/10/18 13:16:58;;;;;;;18.20;15.80;;;;;;;;;;5116683;28;20034;-80
2023/10/18 13:19:27;;;;;;;8.73;7.20;;;;;;;;;;5114197;28;20031;-79
2023/10/18 13:21:52;;;;;;;9.90;5.47;;;;;;;;;;5114372;27;20084;-78
2023/10/18 13:24:25;;;;;;;7.32;6.22;;;;;;;;;;5115593;28;20023;-79
2023/10/18 13:26:53;;;;;;;9.85;6.60;;;;;;;;;;5115497;28;20031;-77
2023/10/18 13:31:49;;;;;;;7.43;5.85;;;;;;;;;;5110724;28;20410;-78
2023/10/18 13:34:20;;;;;;;;;;;;;;;;;;5110791;28;20053;-75
2023/10/18 13:36:47;;;;;;;12.40;7.38;;;;;;;;;;5107864;28;20269;-78
2023/10/18 13:39:13;;;;;;;27.80;24.92;;;;;;;;;;5110056;28;20036;-76
2023/10/18 13:41:39;;;;;;;16.00;8.18;;;;;;;;;;5102866;28;20084;-76
2023/10/18 13:44:05;;;;;;;9.23;7.35;;;;;;;;;;5093177;27;20022;-76
2023/10/18 13:46:30;;;;;;;17.45;15.55;;;;;;;;;;5100107;28;20027;-75
2023/10/18 13:48:56;;;;;;;9.57;8.15;;;;;;;;;;5098087;27;20138;-75
2023/10/18 13:51:21;;;;;;;23.48;18.10;;;;;;;;;;5090613;28;20031;-75
2023/10/18 13:53:47;;;;;;;11.45;9.10;;;;;;;;;;5102923;28;20076;-76
2023/10/18 13:56:13;;;;;;;45.40;25.95;;;;;;;;;;5099827;28;20030;-78
2023/10/18 13:58:39;;;;;;;12.48;8.35;;;;;;;;;;5105317;28;20426;-76
2023/10/18 14:01:05;;;;;;;7.50;5.47;;;;;;;;;;5101980;28;20028;-80
2023/10/18 14:03:32;;;;;;;5.85;5.35;;;;;;;;;;5106681;27;20043;-76
2023/10/18 14:05:57;;;;;;;8.43;7.45;;;;;;;;;;5106740;27;20028;-76
2023/10/18 14:08:24;;;;;;;15.70;10.65;;;;;;;;;;5109189;27;20093;-79
2023/10/18 14:10:54;;;;;;;28.25;20.67;;;;;;;;;;5103646;27;20020;-79
2023/10/18 14:13:21;;;;;;;12.43;8.23;;;;;;;;;;5101080;27;20023;-81
2023/10/18 14:15:46;;;;;;;9.85;6.68;;;;;;;;;;5094808;27;20402;-78
2023/10/18 14:18:14;;;;;;;9.00;7.22;;;;;;;;;;5104589;27;20038;-79
2023/10/18 14:20:43;;;;;;;7.57;6.78;;;;;;;;;;5099101;27;20027;-77
2023/10/18 14:23:10;;;;;;;4.07;3.67;;;;;;;;;;5100987;27;20114;-78
2023/10/18 14:25:38;;;;;;;6.82;4.50;;;;;;;;;;5100184;27;20031;-75
2023/10/18 14:28:03;;;;;;;5.05;4.30;;;;;;;;;;5112183;27;20039;-79
2023/10/18 14:30:32;;;;;;;5.72;3.78;;;;;;;;;;5122344;27;20918;-76
2023/10/18 14:33:00;;;;;;;5.32;3.92;;;;;;;;;;5093342;27;20092;-78
2023/10/18 14:35:27;;;;;;;5.77;4.70;;;;;;;;;;5098864;27;20052;-77
2023/10/18 14:37:52;;;;;;;8.60;5.55;;;;;;;;;;5100414;27;20054;-79
2023/10/18 14:40:23;;;;;;;5.55;4.47;;;;;;;;;;5097675;27;21605;-77
2023/10/18 14:42:50;;;;;;;6.47;4.45;;;;;;;;;;5100108;27;20035;-77
2023/10/18 14:45:16;;;;;;;4.70;3.70;;;;;;;;;;5100278;27;20466;-78
2023/10/18 14:47:41;;;;;;;5.13;4.63;;;;;;;;;;5098542;27;20376;-77
2023/10/18 14:50:07;;;;;;;5.22;4.28;;;;;;;;;;5100607;27;20038;-79
2023/10/18 14:52:32;;;;;;;4.50;3.92;;;;;;;;;;5099223;27;20027;-78
2023/10/18 14:54:57;;;;;;;6.53;5.18;;;;;;;;;;5098240;27;20073;-79
2023/10/18 14:57:24;;;;;;;7.25;5.97;;;;;;;;;;5093919;27;20032;-78
2023/10/18 14:59:50;;;;;;;12.13;9.63;;;;;;;;;;5093618;27;20023;-79
2023/10/18 15:02:16;;;;;;;17.30;10.18;;;;;;;;;;5091926;27;20024;-78
2023/10/18 15:04:42;;;;;;;21.45;13.10;;;;;;;;;;5097706;27;20028;-77
2023/10/18 15:07:08;;;;;;;24.77;15.75;;;;;;;;;;5097024;27;20460;-77
2023/10/18 15:09:33;;;;;;;28.73;19.25;;;;;;;;;;5106007;27;20056;-76
2023/10/18 15:11:58;;;;;;;21.88;15.98;;;;;;;;;;5098589;27;20410;-76
2023/10/18 15:14:24;;;;;;;29.92;20.35;;;;;;;;;;5082172;27;20074;-77
2023/10/18 15:16:49;;;;;;;42.92;28.10;;;;;;;;;;5090606;27;20023;-78
2023/10/18 15:19:15;;;;;;;15.63;12.02;;;;;;;;;;5087142;27;20042;-76
2023/10/18 15:21:46;;;;;;;20.02;15.65;;;;;;;;;;5089213;27;20035;-77
2023/10/18 15:24:14;;;;;;;24.52;16.00;;;;;;;;;;5105053;27;20023;-77
2023/10/18 15:26:39;;;;;;;32.50;24.30;;;;;;;;;;5091662;27;20034;-77
2023/10/18 15:29:08;;;;;;;40.22;34.58;;;;;;;;;;5097031;27;20019;-78
2023/10/18 15:31:37;;;;;;;22.63;20.38;;;;;;;;;;5102692;27;20059;-82
2023/10/18 15:34:02;;;;;;;15.35;13.77;;;;;;;;;;5128376;27;20033;-82
2023/10/18 15:36:28;;;;;;;10.32;9.32;;;;;;;;;;5108569;27;20119;-77
2023/10/18 15:38:56;;;;;;;8.02;6.35;;;;;;;;;;5113303;27;20035;-76